Time;durP1;ratioP1;P1;durP2;ratioP2;P2;SDS_P1;SDS_P2;PMS_P1;PMS_P2;Temp;Humidity;BMP_temperature;BMP_pressure;BME280_temperature;BME280_humidity;BME280_pressure;Samples;Min_cycle;Max_cycle;Signal;HPM_P1;HPM_P2
2022/06/18 00:00:22;;;;;;;1062.43;969.23;;;19.40;66.70;;;;;;4985868;28;20725;-67
2022/06/18 00:02:48;;;;;;;1022.53;933.97;;;19.40;67.30;;;;;;4983363;28;20495;-66
2022/06/18 00:05:16;;;;;;;1055.57;963.43;;;19.40;67.30;;;;;;5000214;28;20376;-66
2022/06/18 00:07:49;;;;;;;1009.03;927.13;;;19.40;67.40;;;;;;4983895;28;20054;-66
2022/06/18 00:10:24;;;;;;;1056.17;965.23;;;19.40;67.60;;;;;;4984243;28;20313;-66
2022/06/18 00:15:38;;;;;;;1039.97;950.95;;;19.40;67.60;;;;;;4983171;28;20312;-65
2022/06/18 00:18:11;;;;;;;1060.87;967.87;;;19.40;67.70;;;;;;4980578;28;20038;-65
2022/06/18 00:20:39;;;;;;;1088.57;989.47;;;19.30;68.00;;;;;;4986379;28;20298;-65
2022/06/18 00:23:13;;;;;;;1045.47;954.80;;;19.20;67.90;;;;;;4986531;28;20313;-65
2022/06/18 00:25:41;;;;;;;1080.43;981.55;;;19.10;68.80;;;;;;4981480;28;20347;-65
2022/06/18 00:28:19;;;;;;;1113.07;999.90;;;19.10;68.90;;;;;;4969235;28;20050;-66
2022/06/18 00:30:45;;;;;;;1103.73;996.60;;;19.00;69.30;;;;;;4983197;28;20301;-65
2022/06/18 00:33:11;;;;;;;1119.17;999.90;;;19.00;69.30;;;;;;4985000;28;20392;-65
2022/06/18 00:35:38;;;;;;;1107.93;997.50;;;18.90;69.80;;;;;;4987690;28;20392;-65
2022/06/18 00:38:06;;;;;;;1091.20;983.70;;;18.90;69.50;;;;;;4983642;28;20320;-65
2022/06/18 00:40:38;;;;;;;1086.67;986.03;;;18.90;69.80;;;;;;4984906;28;20310;-65
2022/06/18 00:43:12;;;;;;;1086.13;986.00;;;18.80;69.90;;;;;;4987740;28;20393;-65
2022/06/18 00:45:38;;;;;;;1045.30;956.57;;;18.70;69.90;;;;;;4965192;28;20294;-65
2022/06/18 00:48:21;;;;;;;1089.93;987.47;;;18.70;70.20;;;;;;4966649;28;20308;-66
2022/06/18 00:50:50;;;;;;;1086.40;982.80;;;18.70;70.10;;;;;;4979189;28;20082;-66
2022/06/18 00:53:29;;;;;;;1053.43;958.80;;;18.60;70.30;;;;;;4984720;28;20678;-66
2022/06/18 00:56:11;;;;;;;1079.90;983.87;;;18.50;70.30;;;;;;4985572;28;20297;-66
2022/06/18 00:58:40;;;;;;;1109.23;999.90;;;18.50;70.70;;;;;;4983198;28;20359;-66
2022/06/18 01:01:21;;;;;;;1076.37;977.40;;;18.40;70.70;;;;;;4984126;28;20681;-65
2022/06/18 01:03:48;;;;;;;1071.57;973.90;;;18.30;70.90;;;;;;5001315;28;21006;-65
2022/06/18 01:06:20;;;;;;;1080.37;978.73;;;18.30;70.80;;;;;;4971375;28;20309;-65
2022/06/18 01:08:48;;;;;;;1075.67;979.53;;;18.20;71.10;;;;;;4984948;28;20302;-65
2022/06/18 01:11:24;;;;;;;1084.23;983.77;;;18.10;71.10;;;;;;4987561;28;20844;-65
2022/06/18 01:13:50;;;;;;;1047.53;952.87;;;18.10;71.10;;;;;;4986035;28;20316;-65
2022/06/18 01:16:18;;;;;;;1086.77;985.43;;;18.00;71.60;;;;;;4977759;28;20302;-65
2022/06/18 01:18:46;;;;;;;1065.90;968.80;;;18.00;71.50;;;;;;4978312;28;20297;-65
2022/06/18 01:21:46;;;;;;;1102.27;997.53;;;18.00;71.70;;;;;;4981765;28;20780;-66
2022/06/18 01:24:22;;;;;;;1085.03;983.23;;;17.90;72.30;;;;;;4991580;28;20643;-66
2022/06/18 01:26:51;;;;;;;1072.73;970.20;;;17.90;72.30;;;;;;4974119;28;20302;-66
2022/06/18 01:29:18;;;;;;;1089.93;981.50;;;17.90;72.80;;;;;;4978415;28;20301;-66
2022/06/18 01:31:46;;;;;;;1088.73;986.33;;;17.90;73.20;;;;;;4982478;28;20388;-66
2022/06/18 01:34:14;;;;;;;1054.57;953.13;;;17.90;74.00;;;;;;4969544;28;20320;-66
2022/06/18 01:36:41;;;;;;;1137.83;999.90;;;17.90;74.00;;;;;;4979873;28;20301;-66
2022/06/18 01:39:12;;;;;;;1120.30;999.90;;;17.80;74.30;;;;;;4972833;28;20337;-66
2022/06/18 01:41:51;;;;;;;1121.73;998.63;;;17.80;74.40;;;;;;4986089;28;20309;-66
2022/06/18 01:44:38;;;;;;;1110.50;992.93;;;17.80;74.90;;;;;;4982771;28;20865;-66
2022/06/18 01:47:14;;;;;;;1104.30;987.10;;;17.70;75.30;;;;;;4959106;28;20416;-65
2022/06/18 01:50:01;;;;;;;1151.53;999.90;;;17.70;75.90;;;;;;4964979;28;20316;-65
2022/06/18 01:52:33;;;;;;;1259.73;992.90;;;17.60;75.80;;;;;;4982556;28;20302;-65
2022/06/18 01:55:06;;;;;;;1114.10;977.83;;;17.60;76.00;;;;;;4983621;28;20317;-66
2022/06/18 01:57:37;;;;;;;1341.77;999.90;;;17.60;76.70;;;;;;4983284;28;20655;-66
2022/06/18 02:00:25;;;;;;;1205.93;999.90;;;17.50;77.60;;;;;;4977316;28;20312;-66
2022/06/18 02:02:52;;;;;;;1341.07;999.90;;;17.50;77.40;;;;;;4985779;28;20309;-66
2022/06/18 02:05:19;;;;;;;1544.40;999.90;;;17.40;77.70;;;;;;4977987;28;20401;-66
2022/06/18 02:07:46;;;;;;;1891.00;999.90;;;17.40;77.70;;;;;;4965977;28;20305;-66
2022/06/18 02:10:37;;;;;;;1804.00;999.90;;;17.40;78.00;;;;;;4984428;28;20309;-66
2022/06/18 02:13:04;;;;;;;1617.70;999.90;;;17.30;79.20;;;;;;4983202;28;20822;-65
2022/06/18 02:15:34;;;;;;;1866.43;999.90;;;17.20;78.80;;;;;;4968515;28;20344;-65
2022/06/18 02:18:05;;;;;;;1532.23;999.90;;;17.20;79.10;;;;;;5000680;28;20302;-65
2022/06/18 02:21:00;;;;;;;1703.50;999.90;;;17.20;78.90;;;;;;4980990;28;20294;-65
2022/06/18 02:23:25;;;;;;;1797.80;999.90;;;17.10;79.10;;;;;;4984925;28;20348;-65
2022/06/18 02:25:52;;;;;;;1835.77;999.90;;;17.00;79.30;;;;;;4983837;28;20345;-65
2022/06/18 02:28:24;;;;;;;1975.00;999.90;;;17.00;79.50;;;;;;4961491;28;20496;-65
2022/06/18 02:30:55;;;;;;;1836.60;999.90;;;16.90;79.50;;;;;;4973053;28;20778;-65
2022/06/18 02:33:44;;;;;;;1999.90;999.90;;;16.90;79.50;;;;;;4983647;28;20313;-65
2022/06/18 02:36:25;;;;;;;1923.40;999.90;;;16.80;80.70;;;;;;4985575;28;20313;-65
2022/06/18 02:38:58;;;;;;;1657.93;999.90;;;16.80;80.10;;;;;;4979423;28;20301;-65
2022/06/18 02:41:25;;;;;;;1999.90;999.90;;;16.70;80.00;;;;;;4996047;28;20884;-65
2022/06/18 02:43:52;;;;;;;1999.90;999.90;;;16.70;80.60;;;;;;4953491;28;20423;-65
2022/06/18 02:46:19;;;;;;;1999.90;999.90;;;16.60;80.40;;;;;;4982916;28;20301;-66
2022/06/18 02:48:45;;;;;;;1999.90;999.90;;;16.60;80.60;;;;;;4953592;28;20391;-66
2022/06/18 02:51:13;;;;;;;1756.87;999.90;;;16.60;80.40;;;;;;4981752;28;20399;-66
2022/06/18 02:53:38;;;;;;;1863.23;999.90;;;16.50;80.50;;;;;;4984833;28;20046;-66
2022/06/18 02:56:06;;;;;;;1999.90;999.90;;;16.50;80.70;;;;;;4980913;28;20422;-66
2022/06/18 02:58:39;;;;;;;1999.90;999.90;;;16.50;81.00;;;;;;4978436;28;20145;-66
2022/06/18 03:01:08;;;;;;;1999.90;999.90;;;16.40;81.20;;;;;;4985095;28;20300;-66
2022/06/18 03:03:41;;;;;;;1999.90;999.90;;;16.40;81.10;;;;;;4969364;28;20316;-65
2022/06/18 03:06:08;;;;;;;1999.90;999.90;;;16.30;81.10;;;;;;4960173;28;20380;-65
2022/06/18 03:08:35;;;;;;;1999.50;999.90;;;16.30;81.30;;;;;;4982692;28;20309;-65
2022/06/18 03:13:46;;;;;;;1653.60;999.90;;;16.30;81.70;;;;;;4982203;28;20301;-65
2022/06/18 03:16:14;;;;;;;1895.23;999.90;;;16.20;82.00;;;;;;4952812;28;20046;-65
2022/06/18 03:18:42;;;;;;;1999.90;999.90;;;16.20;81.70;;;;;;4968126;28;20543;-65
2022/06/18 03:21:45;;;;;;;1999.90;999.90;;;16.20;81.60;;;;;;4985074;28;20289;-65
2022/06/18 03:24:10;;;;;;;1999.90;999.90;;;16.20;82.30;;;;;;4980298;28;20305;-65
2022/06/18 03:26:37;;;;;;;1999.90;999.90;;;16.20;82.10;;;;;;4980291;28;20297;-65
2022/06/18 03:29:05;;;;;;;1999.90;999.90;;;16.20;82.70;;;;;;4982908;28;20042;-65
2022/06/18 03:31:31;;;;;;;1999.90;999.90;;;16.10;82.70;;;;;;4976609;28;20405;-65
2022/06/18 03:33:57;;;;;;;1999.90;999.90;;;16.10;82.50;;;;;;4999227;28;20297;-65
2022/06/18 03:36:23;;;;;;;1999.90;999.90;;;16.10;82.90;;;;;;4982963;28;20646;-65
2022/06/18 03:38:50;;;;;;;1786.87;999.90;;;16.10;82.80;;;;;;4989399;28;20057;-65
2022/06/18 03:41:18;;;;;;;1999.90;999.90;;;16.10;82.60;;;;;;4983733;28;20089;-65
2022/06/18 03:43:44;;;;;;;1999.90;999.90;;;16.10;82.80;;;;;;4988734;28;20371;-65
2022/06/18 03:46:13;;;;;;;1999.90;999.90;;;16.10;82.50;;;;;;4985500;28;20360;-66
2022/06/18 03:48:41;;;;;;;1999.90;999.90;;;16.10;82.50;;;;;;4967128;28;20049;-66
2022/06/18 03:51:08;;;;;;;1876.63;999.90;;;16.10;83.00;;;;;;4998238;28;20310;-66
2022/06/18 03:53:33;;;;;;;1999.90;999.90;;;16.10;82.70;;;;;;4972782;28;20333;-66
2022/06/18 03:55:59;;;;;;;1967.83;999.90;;;16.10;82.70;;;;;;4984430;28;20380;-66
2022/06/18 03:58:27;;;;;;;1999.90;999.90;;;16.20;82.80;;;;;;4988534;28;20470;-65
2022/06/18 04:00:53;;;;;;;1999.90;999.90;;;16.20;82.70;;;;;;4978002;28;20053;-65
2022/06/18 04:03:18;;;;;;;1999.90;999.90;;;16.20;82.60;;;;;;4989004;28;20718;-65
2022/06/18 04:05:44;;;;;;;1999.90;999.90;;;16.30;82.50;;;;;;4980133;28;20360;-65
2022/06/18 04:08:13;;;;;;;1999.90;999.90;;;16.30;82.40;;;;;;4971808;28;20042;-65
2022/06/18 04:10:40;;;;;;;1912.40;999.90;;;16.40;82.10;;;;;;4971349;28;20108;-65
2022/06/18 04:13:05;;;;;;;1999.90;999.90;;;16.40;82.30;;;;;;4984839;28;20329;-65
2022/06/18 04:15:31;;;;;;;1999.90;999.90;;;16.50;82.00;;;;;;4987032;28;20741;-65
2022/06/18 04:17:57;;;;;;;1999.90;999.90;;;16.60;82.00;;;;;;4987405;28;20085;-65
2022/06/18 04:20:30;;;;;;;1999.90;999.90;;;16.60;81.90;;;;;;4987225;28;20039;-65
2022/06/18 04:22:56;;;;;;;1838.07;999.90;;;16.70;81.60;;;;;;4983160;28;20038;-65
2022/06/18 04:25:23;;;;;;;1999.90;999.90;;;16.80;81.30;;;;;;4981399;28;20308;-65
2022/06/18 04:27:49;;;;;;;1920.03;999.90;;;16.80;81.30;;;;;;4984344;28;20338;-65
2022/06/18 04:30:16;;;;;;;1875.77;999.90;;;16.90;81.30;;;;;;4986568;28;20841;-65
2022/06/18 04:32:42;;;;;;;1999.90;999.90;;;16.90;81.00;;;;;;4987160;28;20841;-65
2022/06/18 04:35:10;;;;;;;1989.83;999.90;;;17.10;81.10;;;;;;4961349;28;20363;-65
2022/06/18 04:37:37;;;;;;;1756.97;999.90;;;17.40;80.80;;;;;;4981952;28;20030;-65
2022/06/18 04:40:04;;;;;;;1801.53;999.90;;;17.90;79.90;;;;;;4987836;28;20317;-66
2022/06/18 04:42:30;;;;;;;1661.70;999.90;;;18.30;78.40;;;;;;4982933;28;20298;-66
2022/06/18 04:44:56;;;;;;;1757.07;999.90;;;18.80;76.90;;;;;;4980496;28;20781;-66
2022/06/18 04:47:22;;;;;;;1831.20;999.90;;;19.20;75.40;;;;;;4982790;28;20331;-66
2022/06/18 04:49:48;;;;;;;1224.67;999.90;;;19.50;74.20;;;;;;4985047;28;20716;-66
2022/06/18 04:52:13;;;;;;;1469.03;999.90;;;19.80;73.20;;;;;;4977335;28;20049;-66
2022/06/18 04:54:39;;;;;;;1407.83;999.90;;;20.00;72.60;;;;;;4983071;28;20050;-66
2022/06/18 04:57:05;;;;;;;1439.53;999.90;;;20.20;71.70;;;;;;4966110;28;20053;-66
2022/06/18 04:59:31;;;;;;;1501.17;999.90;;;20.50;70.80;;;;;;4987579;28;20042;-66
2022/06/18 05:02:05;;;;;;;1922.70;999.90;;;20.70;69.90;;;;;;4981335;28;20381;-66
2022/06/18 05:04:31;;;;;;;1918.13;999.90;;;21.10;68.70;;;;;;4986458;28;20495;-66
2022/06/18 05:06:57;;;;;;;1897.00;999.90;;;21.20;68.40;;;;;;4981078;28;20547;-66
2022/06/18 05:09:23;;;;;;;1685.20;999.90;;;21.50;67.60;;;;;;4968743;28;20305;-66
2022/06/18 05:11:49;;;;;;;1810.37;999.90;;;21.70;67.10;;;;;;4985945;28;20054;-66
2022/06/18 05:14:15;;;;;;;1718.90;999.90;;;21.90;66.30;;;;;;4971101;28;20121;-66
2022/06/18 05:16:42;;;;;;;1862.63;999.90;;;21.90;65.90;;;;;;4980325;28;20350;-66
2022/06/18 05:19:23;;;;;;;1844.17;999.90;;;22.00;65.50;;;;;;4982947;28;20050;-66
2022/06/18 05:21:49;;;;;;;1377.40;999.90;;;22.10;65.40;;;;;;4987160;28;20304;-66
2022/06/18 05:24:15;;;;;;;1364.37;999.90;;;22.20;65.10;;;;;;4974077;28;20317;-66
2022/06/18 05:26:45;;;;;;;1387.93;999.90;;;22.30;64.70;;;;;;4955448;28;20793;-66
2022/06/18 05:29:11;;;;;;;1500.50;999.90;;;22.50;64.30;;;;;;4973320;28;20046;-66
2022/06/18 05:31:36;;;;;;;1484.30;999.90;;;22.60;64.00;;;;;;4981080;28;20049;-66
2022/06/18 05:34:03;;;;;;;1348.50;999.90;;;22.60;63.90;;;;;;4970111;28;20093;-66
2022/06/18 05:36:29;;;;;;;1407.73;999.90;;;22.80;63.60;;;;;;4985142;28;20507;-66
2022/06/18 05:38:57;;;;;;;1340.07;999.90;;;22.80;63.30;;;;;;4971204;28;20569;-66
2022/06/18 05:41:23;;;;;;;1399.03;999.90;;;22.80;63.30;;;;;;4974550;28;20077;-66
2022/06/18 05:43:49;;;;;;;1194.17;999.90;;;22.70;63.10;;;;;;4985688;28;20054;-66
2022/06/18 05:46:16;;;;;;;1345.53;999.90;;;22.50;63.10;;;;;;4985779;28;20153;-66
2022/06/18 05:48:42;;;;;;;1299.20;999.90;;;22.40;63.90;;;;;;4967734;28;20125;-66
2022/06/18 05:51:08;;;;;;;1194.60;999.90;;;22.40;64.00;;;;;;4937539;28;20435;-66
2022/06/18 05:53:33;;;;;;;1275.93;999.90;;;22.20;64.40;;;;;;4986865;28;20181;-66
2022/06/18 05:55:59;;;;;;;1191.00;999.90;;;22.10;64.70;;;;;;4979783;28;20077;-66
2022/06/18 05:58:25;;;;;;;1174.53;999.90;;;22.00;64.90;;;;;;4969633;28;20043;-66
2022/06/18 06:00:51;;;;;;;1207.10;999.90;;;21.80;65.60;;;;;;4970205;28;20073;-66
2022/06/18 06:03:17;;;;;;;1463.70;999.90;;;21.60;66.10;;;;;;4985086;28;20038;-66
2022/06/18 06:05:42;;;;;;;1377.07;999.90;;;21.50;66.80;;;;;;4973676;28;20650;-66
2022/06/18 06:08:13;;;;;;;1370.70;999.90;;;21.60;66.90;;;;;;4991951;28;20053;-66
2022/06/18 06:13:24;;;;;;;1532.20;999.90;;;22.40;66.10;;;;;;4968954;28;20100;-66
2022/06/18 06:15:50;;;;;;;1391.47;999.90;;;23.00;64.30;;;;;;4984543;28;20046;-66
2022/06/18 06:18:18;;;;;;;1466.23;999.90;;;23.40;63.40;;;;;;4981774;28;20503;-66
2022/06/18 06:20:48;;;;;;;1364.47;999.90;;;23.70;62.70;;;;;;4983479;28;20467;-66
2022/06/18 06:23:14;;;;;;;1364.00;999.90;;;23.90;62.00;;;;;;4986281;28;20142;-66
2022/06/18 06:25:42;;;;;;;1385.33;999.90;;;24.10;60.90;;;;;;4983531;28;20711;-66
2022/06/18 06:28:14;;;;;;;1394.10;999.90;;;24.20;60.50;;;;;;4982764;28;20078;-66
2022/06/18 06:30:40;;;;;;;1389.50;999.90;;;24.40;59.80;;;;;;4972374;28;20122;-66
2022/06/18 06:33:06;;;;;;;1534.47;999.90;;;24.60;59.40;;;;;;4996034;28;20137;-66
2022/06/18 06:35:33;;;;;;;1346.33;999.90;;;24.70;59.00;;;;;;4983974;28;20065;-66
2022/06/18 06:37:59;;;;;;;1455.23;999.90;;;24.90;58.70;;;;;;4978345;28;20042;-66
2022/06/18 06:40:25;;;;;;;1352.27;999.90;;;24.90;58.20;;;;;;4960889;28;20482;-66
2022/06/18 06:42:53;;;;;;;1370.33;999.90;;;24.90;57.90;;;;;;4996510;28;20053;-66
2022/06/18 06:45:23;;;;;;;1468.67;999.90;;;24.90;58.10;;;;;;4975780;28;20043;-66
2022/06/18 06:47:49;;;;;;;1491.13;999.90;;;24.60;58.10;;;;;;4977703;28;20497;-66
2022/06/18 06:50:17;;;;;;;1493.07;999.90;;;24.40;58.90;;;;;;4964038;28;20033;-66
2022/06/18 06:52:44;;;;;;;1487.43;999.90;;;24.30;59.50;;;;;;4982175;28;20536;-66
2022/06/18 06:58:05;;;;;;;1232.13;999.90;;;23.90;59.80;;;;;;4998253;28;20059;-66
2022/06/18 07:00:33;;;;;;;1306.27;999.90;;;23.80;60.50;;;;;;4966937;28;20030;-66
2022/06/18 07:02:59;;;;;;;1335.40;999.90;;;23.80;61.20;;;;;;4979927;28;20054;-67
2022/06/18 07:05:25;;;;;;;1379.83;999.90;;;23.80;61.10;;;;;;4965922;28;20050;-66
2022/06/18 07:07:50;;;;;;;1291.57;999.90;;;23.80;60.60;;;;;;4962769;28;20035;-66
2022/06/18 07:10:16;;;;;;;1397.63;999.90;;;23.80;60.60;;;;;;4980140;28;20045;-66
2022/06/18 07:12:43;;;;;;;1237.10;999.90;;;23.70;61.00;;;;;;4983546;28;20042;-67
2022/06/18 07:15:09;;;;;;;1338.53;999.90;;;23.70;60.80;;;;;;4979224;28;20134;-67
2022/06/18 07:17:35;;;;;;;1326.30;999.90;;;23.50;60.80;;;;;;4979237;28;20097;-67
2022/06/18 07:20:02;;;;;;;1276.63;999.90;;;23.40;61.20;;;;;;4957886;28;20039;-66
2022/06/18 07:22:28;;;;;;;1506.17;999.90;;;23.20;61.50;;;;;;4958413;28;20034;-66
2022/06/18 07:24:54;;;;;;;1527.50;999.90;;;23.00;62.10;;;;;;4985108;28;20046;-66
2022/06/18 07:27:20;;;;;;;1767.63;999.90;;;22.90;62.10;;;;;;4966351;28;20045;-66
2022/06/18 07:29:46;;;;;;;1608.90;999.90;;;22.90;62.60;;;;;;4968944;28;20124;-66
2022/06/18 07:32:14;;;;;;;1607.77;999.90;;;22.90;62.40;;;;;;4968865;28;20042;-66
2022/06/18 07:34:42;;;;;;;1578.10;999.90;;;22.90;62.10;;;;;;4985302;28;20042;-67
2022/06/18 07:37:08;;;;;;;1444.80;999.90;;;22.90;62.00;;;;;;4966462;28;20070;-67
2022/06/18 07:39:34;;;;;;;1401.93;999.90;;;22.70;62.30;;;;;;4985611;28;20074;-67
2022/06/18 07:42:00;;;;;;;1421.00;999.90;;;22.70;62.40;;;;;;4968593;28;20069;-67
2022/06/18 07:44:26;;;;;;;1326.57;999.90;;;22.70;63.10;;;;;;4984052;28;20038;-67
2022/06/18 07:46:57;;;;;;;1412.93;999.90;;;22.70;63.70;;;;;;4997460;28;20085;-67
2022/06/18 07:49:23;;;;;;;1363.93;999.90;;;22.80;63.30;;;;;;4967165;28;20507;-67
2022/06/18 07:51:49;;;;;;;1421.93;999.90;;;22.90;62.90;;;;;;4971199;28;20493;-67
2022/06/18 07:54:16;;;;;;;1374.00;999.90;;;23.00;62.20;;;;;;4981354;28;20109;-67
2022/06/18 07:56:42;;;;;;;1368.33;999.90;;;23.00;62.40;;;;;;4983427;28;20094;-67
2022/06/18 07:59:08;;;;;;;1450.17;999.90;;;23.00;62.30;;;;;;4978852;28;20125;-67
2022/06/18 08:01:33;;;;;;;1380.97;999.90;;;23.00;62.40;;;;;;4984804;28;20046;-67
2022/06/18 08:04:00;;;;;;;1396.17;999.90;;;23.10;62.20;;;;;;4981945;28;20169;-67
2022/06/18 08:06:25;;;;;;;1526.37;999.90;;;23.10;62.20;;;;;;4984394;28;20062;-67
2022/06/18 08:08:51;;;;;;;1299.70;999.90;;;23.10;62.20;;;;;;4970962;28;20042;-67
2022/06/18 08:11:19;;;;;;;1365.03;999.90;;;23.10;62.00;;;;;;4984987;28;20073;-67
2022/06/18 08:13:46;;;;;;;1419.77;999.90;;;23.10;62.20;;;;;;4985797;28;20593;-67
2022/06/18 08:16:15;;;;;;;1369.23;999.90;;;23.10;62.00;;;;;;4967223;28;20043;-67
2022/06/18 08:18:42;;;;;;;1474.50;999.90;;;23.10;62.10;;;;;;4985513;28;20534;-67
2022/06/18 08:21:46;;;;;;;1529.87;999.90;;;23.10;61.70;;;;;;4987013;28;20042;-67
2022/06/18 08:24:16;;;;;;;1470.03;999.90;;;23.20;62.00;;;;;;4912291;29;20735;-67
2022/06/18 08:26:44;;;;;;;1458.20;999.90;;;23.30;62.20;;;;;;4943914;28;20043;-67
2022/06/18 08:29:14;;;;;;;1498.60;999.90;;;23.20;62.30;;;;;;4940863;28;20061;-67
2022/06/18 08:31:40;;;;;;;1539.43;999.90;;;23.30;62.60;;;;;;4986536;28;20049;-67
2022/06/18 08:34:06;;;;;;;1581.87;999.90;;;23.40;62.10;;;;;;4986476;28;20046;-67
2022/06/18 08:36:32;;;;;;;1642.83;999.90;;;23.30;62.30;;;;;;4967122;28;20046;-67
2022/06/18 08:38:59;;;;;;;1545.83;999.90;;;23.30;62.10;;;;;;4986143;28;20041;-67
2022/06/18 08:41:49;;;;;;;1516.93;999.90;;;23.40;61.80;;;;;;4983849;28;20061;-67
2022/06/18 08:44:39;;;;;;;1484.37;999.90;;;23.40;61.30;;;;;;4984713;28;20122;-67
2022/06/18 08:47:29;;;;;;;1404.53;999.90;;;23.50;61.30;;;;;;4983036;28;20043;-67
2022/06/18 08:50:38;;;;;;;1400.07;999.90;;;23.50;61.40;;;;;;4985069;28;20046;-67
2022/06/18 08:53:17;;;;;;;1349.70;999.90;;;23.60;60.80;;;;;;5001950;28;20375;-67
2022/06/18 08:55:58;;;;;;;1315.40;999.90;;;23.40;60.30;;;;;;4984572;28;20066;-68
2022/06/18 08:58:33;;;;;;;1323.83;999.90;;;23.40;60.00;;;;;;4984741;28;20596;-68
2022/06/18 09:01:06;;;;;;;1313.70;999.90;;;23.40;60.50;;;;;;4984464;28;20038;-67
2022/06/18 09:03:50;;;;;;;1341.90;999.90;;;23.40;60.50;;;;;;4968055;28;20045;-68
2022/06/18 09:06:34;;;;;;;1386.85;999.90;;;23.50;60.60;;;;;;4984442;28;20458;-68
2022/06/18 09:09:37;;;;;;;1303.43;999.90;;;23.60;61.00;;;;;;5001177;28;20034;-67
2022/06/18 09:12:26;;;;;;;1379.30;999.90;;;23.90;60.60;;;;;;4976399;28;20773;-67
2022/06/18 09:15:02;;;;;;;1356.63;999.90;;;24.00;60.20;;;;;;4966064;28;20582;-68
2022/06/18 09:17:40;;;;;;;1295.93;999.90;;;24.00;60.60;;;;;;4974551;28;20043;-67
2022/06/18 09:20:22;;;;;;;1316.47;999.90;;;24.10;60.00;;;;;;4985453;28;20042;-68
2022/06/18 09:22:53;;;;;;;1295.60;999.90;;;24.20;59.40;;;;;;4986788;28;20069;-67
2022/06/18 09:25:24;;;;;;;1274.33;999.90;;;24.30;59.40;;;;;;4971463;28;20114;-68
2022/06/18 09:28:03;;;;;;;1239.63;999.90;;;24.40;59.00;;;;;;4980600;28;20030;-68
2022/06/18 09:30:44;;;;;;;1289.70;999.90;;;24.50;59.20;;;;;;4987161;28;20050;-67
2022/06/18 09:33:12;;;;;;;1288.30;999.90;;;24.50;58.50;;;;;;4980347;28;20117;-68
2022/06/18 09:35:58;;;;;;;1350.47;999.90;;;24.50;58.70;;;;;;4982632;28;20039;-68
2022/06/18 09:38:49;;;;;;;1097.53;992.33;;;24.40;58.80;;;;;;4982931;28;20038;-68
2022/06/18 09:41:43;;;;;;;1225.93;999.90;;;24.40;58.10;;;;;;4978325;28;20647;-68
2022/06/18 09:44:30;;;;;;;1301.97;999.90;;;24.30;58.60;;;;;;4984158;28;20470;-68
2022/06/18 09:47:08;;;;;;;1217.40;999.90;;;24.30;58.70;;;;;;4975635;28;20422;-68
2022/06/18 09:49:34;;;;;;;1229.20;999.90;;;24.30;58.20;;;;;;4984041;28;20042;-68
2022/06/18 09:52:10;;;;;;;1249.47;999.90;;;24.30;57.90;;;;;;4982646;28;20514;-68
2022/06/18 09:54:42;;;;;;;1263.13;999.90;;;24.20;57.40;;;;;;4967476;28;20046;-68
2022/06/18 09:57:08;;;;;;;1289.73;999.90;;;24.30;57.90;;;;;;4980946;28;20046;-68
2022/06/18 09:59:39;;;;;;;1267.07;999.90;;;24.40;57.60;;;;;;4985797;28;20069;-68
2022/06/18 10:02:18;;;;;;;1254.73;999.90;;;24.40;57.20;;;;;;4986181;28;20081;-68
2022/06/18 10:07:32;;;;;;;1186.03;999.90;;;24.60;57.30;;;;;;4973225;28;20447;-68
2022/06/18 10:10:04;;;;;;;1209.33;999.90;;;24.80;56.70;;;;;;4975146;28;20047;-68
2022/06/18 10:12:36;;;;;;;1155.70;999.90;;;24.80;56.80;;;;;;5000691;28;20050;-68
2022/06/18 10:15:06;;;;;;;1214.17;999.90;;;24.70;56.40;;;;;;4980896;28;20129;-68
2022/06/18 10:27:46;;;;;;;1283.83;999.90;;;25.00;56.40;;;;;;4160016;26;20372;-67
2022/06/18 10:30:19;;;;;;;1204.77;999.90;;;25.20;56.90;;;;;;4914185;29;20122;-67
2022/06/18 10:32:53;;;;;;;1217.83;999.90;;;25.40;56.30;;;;;;4906476;29;20043;-67
2022/06/18 10:35:38;;;;;;;1153.75;999.90;;;25.50;55.50;;;;;;4923399;29;20047;-67
2022/06/18 10:38:05;;;;;;;1168.47;999.90;;;25.60;55.10;;;;;;4900062;29;20047;-67
2022/06/18 10:41:02;;;;;;;1176.03;999.90;;;25.60;55.00;;;;;;4920367;29;20043;-67
2022/06/18 10:43:48;;;;;;;1194.20;999.90;;;25.50;53.50;;;;;;4904381;29;20052;-67
2022/06/18 10:46:18;;;;;;;1180.77;999.90;;;25.50;54.60;;;;;;4918423;29;20051;-67
2022/06/18 11:09:21;;;;;;;1138.83;999.90;;;25.60;54.00;;;;;;4267815;26;20409;-66
2022/06/18 11:11:53;;;;;;;1160.85;999.90;;;25.70;53.30;;;;;;4980386;28;20046;-66
2022/06/18 11:14:20;;;;;;;1147.57;999.90;;;25.80;53.30;;;;;;4966205;28;20042;-66
2022/06/18 11:16:47;;;;;;;1156.70;999.90;;;25.90;52.90;;;;;;4971952;28;20575;-66
2022/06/18 11:19:30;;;;;;;1215.37;999.90;;;25.80;52.90;;;;;;4949311;28;20509;-66
2022/06/18 11:25:26;;;;;;;1146.20;999.90;;;25.80;53.20;;;;;;4973536;28;20093;-66
2022/06/18 11:27:57;;;;;;;1125.83;997.90;;;25.90;52.60;;;;;;4969814;28;20517;-66
2022/06/18 11:30:39;;;;;;;1185.40;999.90;;;25.80;52.90;;;;;;4977711;28;20073;-66
2022/06/18 11:33:16;;;;;;;1155.97;999.90;;;25.70;53.00;;;;;;4973899;28;20035;-67
2022/06/18 11:35:42;;;;;;;1150.90;999.90;;;25.60;53.20;;;;;;4979647;28;20038;-66
2022/06/18 11:38:33;;;;;;;1157.07;999.90;;;25.60;52.90;;;;;;4949902;28;20038;-67
2022/06/18 11:41:16;;;;;;;1183.20;999.90;;;25.70;52.70;;;;;;4971115;28;20046;-68
2022/06/18 11:43:41;;;;;;;1168.00;999.90;;;25.60;53.10;;;;;;4967942;28;20495;-66
2022/06/18 11:46:14;;;;;;;1147.03;999.90;;;25.70;53.80;;;;;;4973381;28;20038;-66
2022/06/18 11:48:58;;;;;;;1169.90;999.90;;;25.80;52.60;;;;;;4982489;28;20046;-66
2022/06/18 11:52:08;;;;;;;1154.13;999.90;;;25.70;52.70;;;;;;4988620;28;20089;-66
2022/06/18 11:54:57;;;;;;;1146.77;999.90;;;25.60;53.60;;;;;;4900212;29;20571;-66
2022/06/18 11:57:49;;;;;;;1144.73;999.90;;;25.60;52.80;;;;;;4907719;29;20043;-67
2022/06/18 12:00:23;;;;;;;1247.37;999.90;;;25.60;52.70;;;;;;4964839;28;20093;-67
2022/06/18 12:03:15;;;;;;;1150.47;999.90;;;25.70;52.70;;;;;;4987554;28;20054;-66
2022/06/18 12:06:02;;;;;;;1144.67;999.90;;;25.90;52.20;;;;;;4975512;28;20046;-67
2022/06/18 12:08:29;;;;;;;1151.40;999.90;;;26.00;52.10;;;;;;4968451;28;20134;-66
2022/06/18 12:11:18;;;;;;;1212.50;999.90;;;26.00;52.30;;;;;;4954710;28;20050;-66
2022/06/18 12:13:48;;;;;;;1254.27;999.90;;;26.00;51.90;;;;;;4970451;28;20134;-67
2022/06/18 12:16:34;;;;;;;1225.53;999.90;;;26.10;51.90;;;;;;4969945;28;20086;-67
2022/06/18 12:19:28;;;;;;;1219.20;999.90;;;25.90;51.60;;;;;;4952812;28;20134;-67
2022/06/18 12:22:38;;;;;;;1218.90;999.90;;;26.00;51.20;;;;;;4969395;28;20039;-67
2022/06/18 12:25:44;;;;;;;1162.23;999.90;;;25.80;50.60;;;;;;4891697;29;20056;-67
2022/06/18 12:28:10;;;;;;;1180.20;999.90;;;25.60;51.50;;;;;;4881804;29;21342;-67
2022/06/18 12:30:49;;;;;;;1279.53;999.90;;;25.30;51.70;;;;;;4938364;28;20062;-67
2022/06/18 12:33:29;;;;;;;1249.77;999.90;;;25.30;52.50;;;;;;4948606;28;20047;-67
2022/06/18 12:36:15;;;;;;;1232.30;999.90;;;25.40;51.70;;;;;;4970144;28;20118;-67
2022/06/18 12:39:09;;;;;;;1194.37;999.90;;;25.30;52.20;;;;;;4969919;28;20043;-67
2022/06/18 12:41:46;;;;;;;1243.05;999.90;;;25.20;51.90;;;;;;4954294;28;20049;-68
2022/06/18 12:44:41;;;;;;;1159.53;999.90;;;25.30;51.50;;;;;;4969010;28;20127;-67
2022/06/18 12:47:20;;;;;;;1178.77;999.90;;;25.50;51.50;;;;;;4955427;28;20046;-67
2022/06/18 12:50:01;;;;;;;1210.57;999.90;;;25.30;51.70;;;;;;4968201;28;20118;-67
2022/06/18 12:52:39;;;;;;;1223.90;999.90;;;25.20;51.90;;;;;;4958501;28;20050;-67
2022/06/18 12:55:20;;;;;;;1192.23;999.90;;;25.10;52.30;;;;;;4941309;28;20108;-68
2022/06/18 12:57:55;;;;;;;1241.53;999.90;;;25.00;52.80;;;;;;4966358;28;20042;-67
2022/06/18 13:00:39;;;;;;;1242.70;999.90;;;24.90;52.70;;;;;;4969363;28;20047;-67
2022/06/18 13:03:32;;;;;;;1217.60;999.90;;;24.80;52.80;;;;;;4967133;28;20058;-67
2022/06/18 13:06:11;;;;;;;1177.83;999.90;;;24.70;52.40;;;;;;4971417;28;20098;-67
2022/06/18 13:08:55;;;;;;;1187.53;999.90;;;24.50;52.70;;;;;;4961981;28;20058;-67
2022/06/18 13:11:45;;;;;;;1172.75;999.90;;;24.40;52.10;;;;;;4963987;28;20047;-67